sensor_id;sensor_type;location;lat;lon;timestamp;pressure;altitude;pressure_sealevel;temperature;humidity
64292;BME280;50628;51.008;13.658;2022-11-15T00:00:13;99748.84;;;2.94;100.00
64292;BME280;50628;51.008;13.658;2022-11-15T00:05:35;99732.75;;;2.90;100.00
64292;BME280;50628;51.008;13.658;2022-11-15T00:10:56;99740.88;;;2.64;100.00
64292;BME280;50628;51.008;13.658;2022-11-15T00:16:17;99724.81;;;2.77;100.00
64292;BME280;50628;51.008;13.658;2022-11-15T00:21:38;99716.22;;;2.77;100.00
64292;BME280;50628;51.008;13.658;2022-11-15T00:26:59;99726.19;;;2.12;100.00
64292;BME280;50628;51.008;13.658;2022-11-15T00:32:19;99728.03;;;2.27;100.00
64292;BME280;50628;51.008;13.658;2022-11-15T00:37:41;99728.28;;;2.40;100.00
64292;BME280;50628;51.008;13.658;2022-11-15T00:43:01;99720.28;;;2.46;100.00
64292;BME280;50628;51.008;13.658;2022-11-15T00:48:22;99715.00;;;2.32;100.00
64292;BME280;50628;51.008;13.658;2022-11-15T00:53:43;99700.44;;;2.50;100.00
64292;BME280;50628;51.008;13.658;2022-11-15T00:59:04;99698.75;;;2.49;100.00
64292;BME280;50628;51.008;13.658;2022-11-15T01:04:24;99697.91;;;2.31;100.00
64292;BME280;50628;51.008;13.658;2022-11-15T01:09:46;99683.88;;;2.55;100.00
64292;BME280;50628;51.008;13.658;2022-11-15T01:15:08;99685.31;;;2.07;100.00
64292;BME280;50628;51.008;13.658;2022-11-15T01:20:28;99695.53;;;2.26;100.00
64292;BME280;50628;51.008;13.658;2022-11-15T01:25:50;99680.97;;;2.44;100.00
64292;BME280;50628;51.008;13.658;2022-11-15T01:31:13;99675.13;;;2.42;100.00
64292;BME280;50628;51.008;13.658;2022-11-15T01:36:35;99669.66;;;2.48;100.00
64292;BME280;50628;51.008;13.658;2022-11-15T01:41:56;99671.56;;;2.45;100.00
64292;BME280;50628;51.008;13.658;2022-11-15T01:47:19;99664.84;;;2.42;100.00
64292;BME280;50628;51.008;13.658;2022-11-15T01:52:40;99656.97;;;2.45;100.00
64292;BME280;50628;51.008;13.658;2022-11-15T01:58:04;99642.22;;;2.49;100.00
64292;BME280;50628;51.008;13.658;2022-11-15T02:03:33;99649.22;;;2.10;100.00
64292;BME280;50628;51.008;13.658;2022-11-15T02:08:56;99641.81;;;2.22;100.00
64292;BME280;50628;51.008;13.658;2022-11-15T02:14:19;99631.56;;;2.22;100.00
64292;BME280;50628;51.008;13.658;2022-11-15T02:25:44;99635.72;;;1.88;100.00
64292;BME280;50628;51.008;13.658;2022-11-15T02:31:11;99638.75;;;1.96;100.00
64292;BME280;50628;51.008;13.658;2022-11-15T02:36:41;99626.13;;;2.10;100.00
64292;BME280;50628;51.008;13.658;2022-11-15T02:42:07;99617.72;;;2.24;100.00
64292;BME280;50628;51.008;13.658;2022-11-15T02:47:54;99599.47;;;2.13;100.00
64292;BME280;50628;51.008;13.658;2022-11-15T02:53:15;99597.19;;;2.07;100.00
64292;BME280;50628;51.008;13.658;2022-11-15T02:58:58;99604.56;;;1.95;100.00
64292;BME280;50628;51.008;13.658;2022-11-15T03:04:33;99602.81;;;1.96;100.00
64292;BME280;50628;51.008;13.658;2022-11-15T03:10:02;99599.13;;;1.84;100.00
64292;BME280;50628;51.008;13.658;2022-11-15T03:15:28;99593.63;;;1.92;100.00
64292;BME280;50628;51.008;13.658;2022-11-15T03:20:50;99584.44;;;1.86;100.00
64292;BME280;50628;51.008;13.658;2022-11-15T03:26:12;99583.34;;;1.92;100.00
64292;BME280;50628;51.008;13.658;2022-11-15T03:31:37;99570.59;;;2.08;100.00
64292;BME280;50628;51.008;13.658;2022-11-15T03:37:12;99578.31;;;2.08;100.00
64292;BME280;50628;51.008;13.658;2022-11-15T03:42:38;99575.88;;;1.68;100.00
64292;BME280;50628;51.008;13.658;2022-11-15T03:48:05;99570.97;;;2.00;100.00
64292;BME280;50628;51.008;13.658;2022-11-15T03:53:31;99565.66;;;2.22;100.00
64292;BME280;50628;51.008;13.658;2022-11-15T03:58:52;99561.63;;;2.16;100.00
64292;BME280;50628;51.008;13.658;2022-11-15T04:04:12;99566.97;;;1.94;100.00
64292;BME280;50628;51.008;13.658;2022-11-15T04:09:34;99558.59;;;2.08;100.00
64292;BME280;50628;51.008;13.658;2022-11-15T04:15:17;99558.22;;;1.99;100.00
64292;BME280;50628;51.008;13.658;2022-11-15T04:20:38;99554.91;;;1.97;100.00
64292;BME280;50628;51.008;13.658;2022-11-15T04:26:20;99561.53;;;2.01;100.00
64292;BME280;50628;51.008;13.658;2022-11-15T04:31:41;99555.66;;;2.16;100.00
64292;BME280;50628;51.008;13.658;2022-11-15T04:37:01;99554.22;;;2.10;100.00
64292;BME280;50628;51.008;13.658;2022-11-15T04:42:36;99543.66;;;2.16;100.00
64292;BME280;50628;51.008;13.658;2022-11-15T04:47:56;99543.28;;;2.07;100.00
64292;BME280;50628;51.008;13.658;2022-11-15T04:53:17;99545.16;;;2.03;100.00
64292;BME280;50628;51.008;13.658;2022-11-15T04:58:38;99549.22;;;1.90;100.00
64292;BME280;50628;51.008;13.658;2022-11-15T05:03:58;99534.03;;;1.85;100.00
64292;BME280;50628;51.008;13.658;2022-11-15T05:09:36;99530.94;;;1.79;100.00
64292;BME280;50628;51.008;13.658;2022-11-15T05:14:58;99532.41;;;2.02;100.00
64292;BME280;50628;51.008;13.658;2022-11-15T05:20:18;99537.00;;;1.95;100.00
64292;BME280;50628;51.008;13.658;2022-11-15T05:25:38;99522.66;;;1.91;100.00
64292;BME280;50628;51.008;13.658;2022-11-15T05:31:02;99520.53;;;1.82;100.00
64292;BME280;50628;51.008;13.658;2022-11-15T05:36:28;99523.19;;;1.98;100.00
64292;BME280;50628;51.008;13.658;2022-11-15T05:41:54;99525.22;;;1.91;100.00
64292;BME280;50628;51.008;13.658;2022-11-15T05:47:19;99524.31;;;1.92;100.00
64292;BME280;50628;51.008;13.658;2022-11-15T05:52:41;99524.44;;;1.89;100.00
64292;BME280;50628;51.008;13.658;2022-11-15T05:58:02;99519.25;;;2.08;100.00
64292;BME280;50628;51.008;13.658;2022-11-15T06:03:24;99520.41;;;2.02;100.00
64292;BME280;50628;51.008;13.658;2022-11-15T06:08:44;99522.28;;;2.16;100.00
64292;BME280;50628;51.008;13.658;2022-11-15T06:14:05;99517.63;;;2.07;100.00
64292;BME280;50628;51.008;13.658;2022-11-15T06:19:26;99518.22;;;1.94;100.00
64292;BME280;50628;51.008;13.658;2022-11-15T06:24:51;99524.59;;;1.86;100.00
64292;BME280;50628;51.008;13.658;2022-11-15T06:30:12;99530.50;;;1.88;100.00
64292;BME280;50628;51.008;13.658;2022-11-15T06:35:35;99531.13;;;2.10;100.00
64292;BME280;50628;51.008;13.658;2022-11-15T06:40:55;99532.25;;;2.05;100.00
64292;BME280;50628;51.008;13.658;2022-11-15T06:46:20;99530.19;;;2.11;100.00
64292;BME280;50628;51.008;13.658;2022-11-15T06:51:42;99532.03;;;2.09;100.00
64292;BME280;50628;51.008;13.658;2022-11-15T06:57:06;99541.00;;;2.18;100.00
64292;BME280;50628;51.008;13.658;2022-11-15T07:02:27;99541.94;;;2.34;100.00
64292;BME280;50628;51.008;13.658;2022-11-15T07:07:52;99535.22;;;2.32;100.00
64292;BME280;50628;51.008;13.658;2022-11-15T07:13:13;99530.97;;;2.31;100.00
64292;BME280;50628;51.008;13.658;2022-11-15T07:18:33;99535.66;;;2.40;100.00
64292;BME280;50628;51.008;13.658;2022-11-15T07:23:55;99548.69;;;2.53;100.00
64292;BME280;50628;51.008;13.658;2022-11-15T07:29:15;99545.50;;;2.98;100.00
64292;BME280;50628;51.008;13.658;2022-11-15T07:34:36;99549.44;;;3.21;100.00
64292;BME280;50628;51.008;13.658;2022-11-15T07:39:58;99555.91;;;3.13;100.00
64292;BME280;50628;51.008;13.658;2022-11-15T07:45:18;99549.50;;;3.20;100.00
64292;BME280;50628;51.008;13.658;2022-11-15T07:50:41;99546.13;;;3.35;100.00
64292;BME280;50628;51.008;13.658;2022-11-15T07:56:05;99548.59;;;3.68;100.00
64292;BME280;50628;51.008;13.658;2022-11-15T08:01:26;99535.34;;;3.90;100.00
64292;BME280;50628;51.008;13.658;2022-11-15T08:06:46;99526.34;;;3.98;100.00
64292;BME280;50628;51.008;13.658;2022-11-15T08:12:08;99531.88;;;4.22;100.00
64292;BME280;50628;51.008;13.658;2022-11-15T08:17:29;99540.31;;;4.54;100.00
64292;BME280;50628;51.008;13.658;2022-11-15T08:22:51;99532.19;;;4.89;100.00
64292;BME280;50628;51.008;13.658;2022-11-15T08:28:16;99524.63;;;5.00;100.00
64292;BME280;50628;51.008;13.658;2022-11-15T08:33:36;99523.94;;;5.39;100.00
64292;BME280;50628;51.008;13.658;2022-11-15T08:38:56;99519.00;;;5.76;100.00
64292;BME280;50628;51.008;13.658;2022-11-15T08:44:18;99512.94;;;6.17;100.00
64292;BME280;50628;51.008;13.658;2022-11-15T08:49:39;99512.47;;;6.38;100.00
64292;BME280;50628;51.008;13.658;2022-11-15T08:54:59;99497.84;;;6.62;100.00
64292;BME280;50628;51.008;13.658;2022-11-15T09:00:21;99493.56;;;7.00;100.00
64292;BME280;50628;51.008;13.658;2022-11-15T09:05:41;99497.34;;;7.20;100.00
64292;BME280;50628;51.008;13.658;2022-11-15T09:11:03;99488.13;;;7.52;100.00
64292;BME280;50628;51.008;13.658;2022-11-15T09:16:24;99488.22;;;7.75;100.00
64292;BME280;50628;51.008;13.658;2022-11-15T09:21:45;99484.25;;;7.93;100.00
64292;BME280;50628;51.008;13.658;2022-11-15T09:27:05;99482.78;;;8.13;100.00
64292;BME280;50628;51.008;13.658;2022-11-15T09:32:29;99486.66;;;8.43;100.00
64292;BME280;50628;51.008;13.658;2022-11-15T09:37:49;99471.78;;;8.79;100.00
64292;BME280;50628;51.008;13.658;2022-11-15T09:43:25;99464.34;;;9.08;100.00
64292;BME280;50628;51.008;13.658;2022-11-15T09:48:51;99457.81;;;9.25;100.00
64292;BME280;50628;51.008;13.658;2022-11-15T09:54:11;99454.09;;;9.50;100.00
64292;BME280;50628;51.008;13.658;2022-11-15T10:04:59;99434.53;;;9.88;100.00
64292;BME280;50628;51.008;13.658;2022-11-15T10:10:08;99435.72;;;10.05;100.00
64292;BME280;50628;51.008;13.658;2022-11-15T10:15:15;99434.66;;;10.28;100.00
64292;BME280;50628;51.008;13.658;2022-11-15T10:20:26;99422.59;;;10.06;100.00
64292;BME280;50628;51.008;13.658;2022-11-15T10:25:30;99417.22;;;9.98;100.00
64292;BME280;50628;51.008;13.658;2022-11-15T10:30:34;99407.13;;;10.05;100.00
64292;BME280;50628;51.008;13.658;2022-11-15T10:35:38;99396.03;;;9.82;100.00
64292;BME280;50628;51.008;13.658;2022-11-15T10:40:41;99393.06;;;9.65;100.00
64292;BME280;50628;51.008;13.658;2022-11-15T10:45:45;99392.38;;;9.84;100.00
64292;BME280;50628;51.008;13.658;2022-11-15T10:50:49;99384.13;;;9.79;100.00
64292;BME280;50628;51.008;13.658;2022-11-15T10:55:57;99383.00;;;9.93;100.00
64292;BME280;50628;51.008;13.658;2022-11-15T11:01:12;99375.97;;;10.14;100.00
64292;BME280;50628;51.008;13.658;2022-11-15T11:06:17;99355.75;;;10.49;100.00
64292;BME280;50628;51.008;13.658;2022-11-15T11:11:19;99346.28;;;10.48;100.00
64292;BME280;50628;51.008;13.658;2022-11-15T11:16:43;99344.59;;;10.37;100.00
64292;BME280;50628;51.008;13.658;2022-11-15T11:21:53;99340.31;;;10.67;100.00
64292;BME280;50628;51.008;13.658;2022-11-15T11:27:08;99333.34;;;11.25;100.00
64292;BME280;50628;51.008;13.658;2022-11-15T11:32:25;99322.53;;;10.91;100.00
64292;BME280;50628;51.008;13.658;2022-11-15T11:37:37;99316.50;;;11.30;100.00
64292;BME280;50628;51.008;13.658;2022-11-15T11:42:47;99319.22;;;11.09;100.00
64292;BME280;50628;51.008;13.658;2022-11-15T11:48:01;99319.38;;;11.26;100.00
64292;BME280;50628;51.008;13.658;2022-11-15T11:53:11;99304.94;;;11.52;100.00
64292;BME280;50628;51.008;13.658;2022-11-15T11:58:16;99304.16;;;11.32;100.00
64292;BME280;50628;51.008;13.658;2022-11-15T12:03:24;99294.25;;;11.45;100.00
64292;BME280;50628;51.008;13.658;2022-11-15T12:08:35;99276.97;;;11.44;100.00
64292;BME280;50628;51.008;13.658;2022-11-15T12:13:42;99269.78;;;11.65;100.00
64292;BME280;50628;51.008;13.658;2022-11-15T12:18:50;99269.59;;;11.86;100.00
64292;BME280;50628;51.008;13.658;2022-11-15T12:23:58;99255.53;;;11.60;100.00
64292;BME280;50628;51.008;13.658;2022-11-15T12:29:11;99244.38;;;12.15;100.00
64292;BME280;50628;51.008;13.658;2022-11-15T12:34:30;99238.97;;;12.16;100.00
64292;BME280;50628;51.008;13.658;2022-11-15T12:45:28;99230.34;;;11.78;100.00
64292;BME280;50628;51.008;13.658;2022-11-15T12:50:53;99228.28;;;11.82;100.00
64292;BME280;50628;51.008;13.658;2022-11-15T12:56:23;99219.09;;;11.87;100.00
64292;BME280;50628;51.008;13.658;2022-11-15T13:01:54;99215.09;;;11.83;100.00
64292;BME280;50628;51.008;13.658;2022-11-15T13:06:59;99207.19;;;11.75;100.00
64292;BME280;50628;51.008;13.658;2022-11-15T13:12:02;99208.63;;;11.97;100.00
64292;BME280;50628;51.008;13.658;2022-11-15T13:17:23;99199.22;;;12.68;100.00
64292;BME280;50628;51.008;13.658;2022-11-15T13:22:25;99198.03;;;13.06;100.00
64292;BME280;50628;51.008;13.658;2022-11-15T13:27:46;99198.16;;;13.05;100.00
64292;BME280;50628;51.008;13.658;2022-11-15T13:32:51;99197.03;;;12.63;100.00
64292;BME280;50628;51.008;13.658;2022-11-15T13:37:54;99192.47;;;12.11;100.00
64292;BME280;50628;51.008;13.658;2022-11-15T13:42:57;99189.84;;;12.11;100.00
64292;BME280;50628;51.008;13.658;2022-11-15T13:48:05;99184.88;;;12.18;100.00
64292;BME280;50628;51.008;13.658;2022-11-15T13:53:09;99189.78;;;12.75;100.00
64292;BME280;50628;51.008;13.658;2022-11-15T13:58:11;99176.13;;;13.07;100.00
64292;BME280;50628;51.008;13.658;2022-11-15T14:03:19;99181.53;;;12.44;100.00
64292;BME280;50628;51.008;13.658;2022-11-15T14:08:23;99173.00;;;12.06;100.00
64292;BME280;50628;51.008;13.658;2022-11-15T14:13:29;99168.81;;;11.95;100.00
64292;BME280;50628;51.008;13.658;2022-11-15T14:18:44;99167.72;;;11.98;100.00
64292;BME280;50628;51.008;13.658;2022-11-15T14:23:46;99171.94;;;11.71;100.00
64292;BME280;50628;51.008;13.658;2022-11-15T14:28:49;99163.56;;;12.05;100.00
64292;BME280;50628;51.008;13.658;2022-11-15T14:33:52;99167.22;;;11.19;100.00
64292;BME280;50628;51.008;13.658;2022-11-15T14:38:54;99170.44;;;10.65;100.00
64292;BME280;50628;51.008;13.658;2022-11-15T14:43:56;99172.19;;;10.15;100.00
64292;BME280;50628;51.008;13.658;2022-11-15T14:48:59;99166.69;;;9.99;100.00
64292;BME280;50628;51.008;13.658;2022-11-15T14:54:01;99172.72;;;9.28;100.00
64292;BME280;50628;51.008;13.658;2022-11-15T14:59:02;99168.84;;;8.92;100.00
64292;BME280;50628;51.008;13.658;2022-11-15T15:04:06;99159.22;;;8.83;100.00
64292;BME280;50628;51.008;13.658;2022-11-15T15:09:07;99153.28;;;8.92;100.00
64292;BME280;50628;51.008;13.658;2022-11-15T15:14:09;99151.28;;;8.63;100.00
64292;BME280;50628;51.008;13.658;2022-11-15T15:19:12;99148.94;;;8.28;100.00
64292;BME280;50628;51.008;13.658;2022-11-15T15:24:14;99147.78;;;7.89;100.00
64292;BME280;50628;51.008;13.658;2022-11-15T15:29:16;99145.69;;;8.15;100.00
64292;BME280;50628;51.008;13.658;2022-11-15T15:34:19;99149.34;;;8.12;100.00
64292;BME280;50628;51.008;13.658;2022-11-15T15:39:21;99154.03;;;7.86;100.00
64292;BME280;50628;51.008;13.658;2022-11-15T15:44:23;99153.34;;;7.50;100.00
64292;BME280;50628;51.008;13.658;2022-11-15T15:49:27;99151.81;;;7.36;100.00
64292;BME280;50628;51.008;13.658;2022-11-15T15:54:28;99160.88;;;7.42;100.00
64292;BME280;50628;51.008;13.658;2022-11-15T15:59:30;99142.66;;;7.44;100.00
64292;BME280;50628;51.008;13.658;2022-11-15T16:04:33;99149.69;;;7.53;100.00
64292;BME280;50628;51.008;13.658;2022-11-15T16:09:35;99146.97;;;7.43;100.00
64292;BME280;50628;51.008;13.658;2022-11-15T16:14:54;99140.28;;;7.29;100.00
64292;BME280;50628;51.008;13.658;2022-11-15T16:19:58;99153.59;;;7.13;100.00
64292;BME280;50628;51.008;13.658;2022-11-15T16:24:59;99151.91;;;7.01;100.00
64292;BME280;50628;51.008;13.658;2022-11-15T16:30:01;99155.66;;;6.97;100.00
64292;BME280;50628;51.008;13.658;2022-11-15T16:35:05;99142.09;;;6.82;100.00
64292;BME280;50628;51.008;13.658;2022-11-15T16:40:17;99150.66;;;6.71;100.00
64292;BME280;50628;51.008;13.658;2022-11-15T16:45:21;99142.09;;;6.71;100.00
64292;BME280;50628;51.008;13.658;2022-11-15T16:50:26;99130.56;;;6.64;100.00
64292;BME280;50628;51.008;13.658;2022-11-15T16:55:28;99134.41;;;6.58;100.00
64292;BME280;50628;51.008;13.658;2022-11-15T17:00:30;99135.50;;;6.32;100.00
64292;BME280;50628;51.008;13.658;2022-11-15T17:05:33;99139.50;;;6.36;100.00
64292;BME280;50628;51.008;13.658;2022-11-15T17:10:38;99131.34;;;6.18;100.00
64292;BME280;50628;51.008;13.658;2022-11-15T17:15:41;99123.97;;;6.00;100.00
64292;BME280;50628;51.008;13.658;2022-11-15T17:20:44;99109.72;;;5.82;100.00
64292;BME280;50628;51.008;13.658;2022-11-15T17:25:46;99128.25;;;5.76;100.00
64292;BME280;50628;51.008;13.658;2022-11-15T17:30:47;99115.06;;;5.68;100.00
64292;BME280;50628;51.008;13.658;2022-11-15T17:35:55;99129.56;;;5.57;100.00
64292;BME280;50628;51.008;13.658;2022-11-15T17:41:01;99128.03;;;5.42;100.00
64292;BME280;50628;51.008;13.658;2022-11-15T17:46:05;99124.53;;;5.30;100.00
64292;BME280;50628;51.008;13.658;2022-11-15T17:51:10;99121.75;;;5.20;100.00
64292;BME280;50628;51.008;13.658;2022-11-15T17:56:14;99107.00;;;5.23;100.00
64292;BME280;50628;51.008;13.658;2022-11-15T18:01:17;99110.91;;;5.28;100.00
64292;BME280;50628;51.008;13.658;2022-11-15T18:06:23;99104.00;;;5.16;100.00
64292;BME280;50628;51.008;13.658;2022-11-15T18:11:26;99093.63;;;5.05;100.00
64292;BME280;50628;51.008;13.658;2022-11-15T18:16:30;99084.63;;;5.10;100.00
64292;BME280;50628;51.008;13.658;2022-11-15T18:21:34;99087.53;;;4.80;100.00
64292;BME280;50628;51.008;13.658;2022-11-15T18:26:56;99087.44;;;4.69;100.00
64292;BME280;50628;51.008;13.658;2022-11-15T18:31:58;99074.22;;;4.86;100.00
64292;BME280;50628;51.008;13.658;2022-11-15T18:37:01;99074.22;;;5.12;100.00
64292;BME280;50628;51.008;13.658;2022-11-15T18:42:03;99065.63;;;5.11;100.00
64292;BME280;50628;51.008;13.658;2022-11-15T18:47:05;99050.19;;;4.86;100.00
64292;BME280;50628;51.008;13.658;2022-11-15T18:52:08;99052.22;;;5.06;100.00
64292;BME280;50628;51.008;13.658;2022-11-15T18:57:10;99052.22;;;5.06;100.00
64292;BME280;50628;51.008;13.658;2022-11-15T19:02:12;99054.22;;;4.77;100.00
64292;BME280;50628;51.008;13.658;2022-11-15T19:07:15;99057.41;;;4.42;100.00
64292;BME280;50628;51.008;13.658;2022-11-15T19:12:17;99063.59;;;4.78;100.00
64292;BME280;50628;51.008;13.658;2022-11-15T19:17:19;99065.16;;;4.68;100.00
64292;BME280;50628;51.008;13.658;2022-11-15T19:22:22;99057.63;;;4.52;100.00
64292;BME280;50628;51.008;13.658;2022-11-15T19:27:24;99064.94;;;4.45;100.00
64292;BME280;50628;51.008;13.658;2022-11-15T19:32:27;99061.44;;;4.46;100.00
64292;BME280;50628;51.008;13.658;2022-11-15T19:37:30;99059.88;;;4.44;100.00
64292;BME280;50628;51.008;13.658;2022-11-15T19:42:31;99066.78;;;4.43;100.00
64292;BME280;50628;51.008;13.658;2022-11-15T19:47:33;99053.81;;;4.70;100.00
64292;BME280;50628;51.008;13.658;2022-11-15T19:52:36;99039.28;;;4.57;100.00
64292;BME280;50628;51.008;13.658;2022-11-15T19:57:38;99045.56;;;4.78;100.00
64292;BME280;50628;51.008;13.658;2022-11-15T20:02:40;99046.38;;;4.78;100.00
64292;BME280;50628;51.008;13.658;2022-11-15T20:07:43;99041.94;;;4.68;100.00
64292;BME280;50628;51.008;13.658;2022-11-15T20:12:45;99043.28;;;4.73;100.00
64292;BME280;50628;51.008;13.658;2022-11-15T20:17:46;99046.38;;;4.78;100.00
64292;BME280;50628;51.008;13.658;2022-11-15T20:22:50;99040.00;;;4.59;100.00
64292;BME280;50628;51.008;13.658;2022-11-15T20:27:52;99028.25;;;4.42;100.00
64292;BME280;50628;51.008;13.658;2022-11-15T20:32:54;99024.34;;;4.49;100.00
64292;BME280;50628;51.008;13.658;2022-11-15T20:37:57;99015.22;;;4.30;100.00
64292;BME280;50628;51.008;13.658;2022-11-15T20:42:59;99014.94;;;4.35;100.00
64292;BME280;50628;51.008;13.658;2022-11-15T20:48:00;99024.41;;;4.34;100.00
64292;BME280;50628;51.008;13.658;2022-11-15T20:53:03;99012.34;;;4.09;100.00
64292;BME280;50628;51.008;13.658;2022-11-15T20:58:06;99013.19;;;3.83;100.00
64292;BME280;50628;51.008;13.658;2022-11-15T21:03:08;99017.41;;;3.71;100.00
64292;BME280;50628;51.008;13.658;2022-11-15T21:08:11;99007.41;;;3.79;100.00
64292;BME280;50628;51.008;13.658;2022-11-15T21:13:13;99005.34;;;3.72;100.00
64292;BME280;50628;51.008;13.658;2022-11-15T21:18:15;98999.47;;;3.69;100.00
64292;BME280;50628;51.008;13.658;2022-11-15T21:23:18;98996.47;;;3.63;100.00
64292;BME280;50628;51.008;13.658;2022-11-15T21:28:20;98978.94;;;3.55;100.00
64292;BME280;50628;51.008;13.658;2022-11-15T21:33:22;98994.97;;;3.46;100.00
64292;BME280;50628;51.008;13.658;2022-11-15T21:38:28;98993.75;;;3.52;100.00
64292;BME280;50628;51.008;13.658;2022-11-15T21:43:29;98980.47;;;3.58;100.00
64292;BME280;50628;51.008;13.658;2022-11-15T21:48:32;98968.47;;;3.58;100.00
64292;BME280;50628;51.008;13.658;2022-11-15T21:53:36;98960.75;;;3.58;100.00
64292;BME280;50628;51.008;13.658;2022-11-15T21:58:38;98962.34;;;3.46;100.00
64292;BME280;50628;51.008;13.658;2022-11-15T22:03:40;98954.09;;;3.41;100.00
64292;BME280;50628;51.008;13.658;2022-11-15T22:08:44;98951.53;;;3.41;100.00
64292;BME280;50628;51.008;13.658;2022-11-15T22:13:46;98963.25;;;3.18;100.00
64292;BME280;50628;51.008;13.658;2022-11-15T22:18:48;98957.00;;;2.95;100.00
64292;BME280;50628;51.008;13.658;2022-11-15T22:23:52;98949.16;;;2.97;100.00
64292;BME280;50628;51.008;13.658;2022-11-15T22:28:54;98949.44;;;2.92;100.00
64292;BME280;50628;51.008;13.658;2022-11-15T22:39:26;98919.69;;;3.02;100.00
64292;BME280;50628;51.008;13.658;2022-11-15T22:44:28;98903.97;;;3.07;100.00
64292;BME280;50628;51.008;13.658;2022-11-15T22:49:30;98896.47;;;2.90;100.00
64292;BME280;50628;51.008;13.658;2022-11-15T22:54:33;98895.84;;;2.86;100.00
64292;BME280;50628;51.008;13.658;2022-11-15T22:59:35;98898.94;;;2.64;100.00
64292;BME280;50628;51.008;13.658;2022-11-15T23:04:37;98889.66;;;2.76;100.00
64292;BME280;50628;51.008;13.658;2022-11-15T23:09:41;98881.13;;;2.61;100.00
64292;BME280;50628;51.008;13.658;2022-11-15T23:14:43;98878.28;;;2.66;100.00
64292;BME280;50628;51.008;13.658;2022-11-15T23:19:45;98872.75;;;2.72;100.00
64292;BME280;50628;51.008;13.658;2022-11-15T23:24:49;98853.75;;;2.74;100.00
64292;BME280;50628;51.008;13.658;2022-11-15T23:29:52;98854.34;;;2.65;100.00
64292;BME280;50628;51.008;13.658;2022-11-15T23:35:11;98838.41;;;2.60;100.00
64292;BME280;50628;51.008;13.658;2022-11-15T23:40:14;98837.53;;;2.74;100.00
64292;BME280;50628;51.008;13.658;2022-11-15T23:45:16;98840.16;;;2.45;100.00
64292;BME280;50628;51.008;13.658;2022-11-15T23:50:19;98845.25;;;2.32;100.00
64292;BME280;50628;51.008;13.658;2022-11-15T23:55:22;98844.31;;;2.19;100.00
